createdAt,value
2023-01-11T00:01:22.145Z,97406.38
2023-01-11T00:03:48.490Z,97412.78
2023-01-11T00:06:14.749Z,97413.94
2023-01-11T00:08:41.017Z,97415.88
2023-01-11T00:11:07.305Z,97401.72
2023-01-11T00:13:34.135Z,97407.66
2023-01-11T00:16:00.446Z,97406.34
2023-01-11T00:18:31.871Z,97403.47
2023-01-11T00:21:01.879Z,97392.09
2023-01-11T00:23:28.442Z,97398.16
2023-01-11T00:25:54.746Z,97401.75
2023-01-11T00:28:21.148Z,97390.09
2023-01-11T00:30:47.513Z,97383.28
2023-01-11T00:33:13.823Z,97372.16
2023-01-11T00:35:40.081Z,97374.56
2023-01-11T00:38:06.851Z,97371.31
2023-01-11T00:40:33.185Z,97371.84
2023-01-11T00:42:59.490Z,97362.19
2023-01-11T00:45:25.790Z,97344.06
2023-01-11T00:47:52.233Z,97371.69
2023-01-11T00:50:18.630Z,97377.13
2023-01-11T00:52:45.076Z,97387.03
2023-01-11T00:55:11.381Z,97381.72
2023-01-11T00:57:37.703Z,97381.84
2023-01-11T01:00:04.862Z,97379.41
2023-01-11T01:02:31.288Z,97372.22
2023-01-11T01:04:57.587Z,97364.97
2023-01-11T01:07:23.938Z,97372.44
2023-01-11T01:09:51.141Z,97355.56
2023-01-11T01:12:17.517Z,97359.00
2023-01-11T01:14:44.045Z,97376.72
2023-01-11T01:17:10.361Z,97369.22
2023-01-11T01:19:36.713Z,97361.09
2023-01-11T01:22:02.982Z,97355.34
2023-01-11T01:24:29.298Z,97351.88
2023-01-11T01:26:55.575Z,97353.56
2023-01-11T01:29:22.862Z,97350.34
2023-01-11T01:31:49.230Z,97350.56
2023-01-11T01:34:16.171Z,97362.66
2023-01-11T01:36:42.874Z,97347.56
2023-01-11T01:39:09.199Z,97361.38
2023-01-11T01:41:35.466Z,97360.91
2023-01-11T01:44:12.255Z,97352.84
2023-01-11T01:46:42.402Z,97339.25
2023-01-11T01:49:08.929Z,97331.44
2023-01-11T01:51:35.228Z,97336.13
2023-01-11T01:54:01.515Z,97341.25
2023-01-11T01:56:28.672Z,97333.72
2023-01-11T01:58:54.993Z,97339.25
2023-01-11T02:01:21.346Z,97333.63
2023-01-11T02:03:47.749Z,97326.50
2023-01-11T02:06:14.181Z,97326.84
2023-01-11T02:08:41.725Z,97318.44
2023-01-11T02:11:09.363Z,97312.31
2023-01-11T02:13:35.750Z,97309.81
2023-01-11T02:16:02.072Z,97298.22
2023-01-11T02:18:28.361Z,97302.59
2023-01-11T02:20:55.223Z,97296.66
2023-01-11T02:23:23.604Z,97297.53
2023-01-11T02:25:50.040Z,97283.38
2023-01-11T02:28:17.249Z,97289.81
2023-01-11T02:30:43.645Z,97291.66
2023-01-11T02:33:12.838Z,97290.28
2023-01-11T02:35:39.113Z,97283.28
2023-01-11T02:38:05.534Z,97274.53
2023-01-11T02:40:31.838Z,97279.97
2023-01-11T02:42:58.608Z,97272.59
2023-01-11T02:45:25.647Z,97283.50
2023-01-11T02:47:51.887Z,97271.44
2023-01-11T02:50:19.136Z,97270.41
2023-01-11T02:52:46.538Z,97263.50
2023-01-11T02:55:12.795Z,97260.75
2023-01-11T02:57:39.059Z,97253.75
2023-01-11T03:00:06.334Z,97244.09
2023-01-11T03:02:32.758Z,97252.56
2023-01-11T03:04:59.846Z,97243.56
2023-01-11T03:07:26.126Z,97239.31
2023-01-11T03:09:53.269Z,97234.31
2023-01-11T03:12:19.539Z,97231.53
2023-01-11T03:14:45.982Z,97221.31
2023-01-11T03:17:12.221Z,97229.59
2023-01-11T03:19:38.491Z,97238.34
2023-01-11T03:22:05.096Z,97239.59
2023-01-11T03:24:31.376Z,97244.44
2023-01-11T03:26:57.684Z,97249.06
2023-01-11T03:29:24.709Z,97239.09
2023-01-11T03:31:50.967Z,97241.16
2023-01-11T03:34:18.349Z,97242.59
2023-01-11T03:36:45.294Z,97239.91
2023-01-11T03:39:11.608Z,97222.53
2023-01-11T03:41:38.951Z,97243.06
2023-01-11T03:44:07.298Z,97237.44
2023-01-11T03:46:33.885Z,97229.06
2023-01-11T03:49:00.394Z,97249.19
2023-01-11T03:51:32.908Z,97247.59
2023-01-11T03:54:02.029Z,97246.09
2023-01-11T03:56:28.529Z,97226.34
2023-01-11T03:58:55.175Z,97216.13
2023-01-11T04:01:21.447Z,97229.56
2023-01-11T04:03:47.776Z,97212.44
2023-01-11T04:06:14.038Z,97218.31
2023-01-11T04:08:40.324Z,97227.28
2023-01-11T04:11:06.942Z,97231.97
2023-01-11T04:13:33.569Z,97220.81
2023-01-11T04:15:59.996Z,97205.09
2023-01-11T04:18:26.316Z,97201.78
2023-01-11T04:20:52.601Z,97213.13
2023-01-11T04:23:19.012Z,97194.28
2023-01-11T04:25:45.586Z,97187.97
2023-01-11T04:28:12.039Z,97184.53
2023-01-11T04:30:38.337Z,97189.69
2023-01-11T04:33:05.373Z,97184.97
2023-01-11T04:35:31.738Z,97207.31
2023-01-11T04:37:58.053Z,97181.41
2023-01-11T04:40:24.994Z,97195.69
2023-01-11T04:42:51.285Z,97185.69
2023-01-11T04:45:17.830Z,97182.91
2023-01-11T04:47:44.354Z,97195.81
2023-01-11T04:50:10.665Z,97191.41
2023-01-11T04:52:37.845Z,97190.59
2023-01-11T04:55:04.351Z,97182.88
2023-01-11T04:57:31.073Z,97196.75
2023-01-11T04:59:58.982Z,97196.81
2023-01-11T05:02:25.274Z,97189.94
2023-01-11T05:04:52.540Z,97193.34
2023-01-11T05:07:19.734Z,97202.84
2023-01-11T05:09:46.116Z,97201.97
2023-01-11T05:12:12.384Z,97196.03
2023-01-11T05:14:38.621Z,97190.31
2023-01-11T05:17:04.957Z,97184.19
2023-01-11T05:19:31.223Z,97183.44
2023-01-11T05:21:57.520Z,97181.44
2023-01-11T05:24:24.216Z,97184.72
2023-01-11T05:26:53.551Z,97191.72
2023-01-11T05:29:19.818Z,97192.63
2023-01-11T05:31:46.513Z,97179.41
2023-01-11T05:34:13.888Z,97176.81
2023-01-11T05:36:40.190Z,97181.38
2023-01-11T05:39:06.879Z,97180.66
2023-01-11T05:41:33.247Z,97180.97
2023-01-11T05:43:59.772Z,97183.13
2023-01-11T05:46:26.483Z,97180.78
2023-01-11T05:48:53.371Z,97191.75
2023-01-11T05:51:19.702Z,97178.75
2023-01-11T05:53:46.033Z,97196.63
2023-01-11T05:56:12.469Z,97188.97
2023-01-11T05:58:38.882Z,97168.81
2023-01-11T06:01:05.329Z,97187.72
2023-01-11T06:03:32.104Z,97174.75
2023-01-11T06:05:58.563Z,97176.69
2023-01-11T06:08:24.937Z,97184.72
2023-01-11T06:10:51.280Z,97182.38
2023-01-11T06:13:20.444Z,97180.81
2023-01-11T06:15:47.418Z,97175.03
2023-01-11T06:18:14.222Z,97170.03
2023-01-11T06:20:40.515Z,97165.78
2023-01-11T06:23:06.847Z,97161.84
2023-01-11T06:25:34.794Z,97159.50
2023-01-11T06:28:01.443Z,97157.13
2023-01-11T06:30:28.087Z,97157.44
2023-01-11T06:32:54.512Z,97159.59
2023-01-11T06:35:21.224Z,97143.13
2023-01-11T06:37:47.837Z,97155.94
2023-01-11T06:40:14.277Z,97158.09
2023-01-11T06:42:41.403Z,97162.09
2023-01-11T06:45:07.745Z,97164.28
2023-01-11T06:47:34.060Z,97154.19
2023-01-11T06:50:03.247Z,97147.53
2023-01-11T06:52:30.343Z,97153.41
2023-01-11T06:54:57.294Z,97151.06
2023-01-11T06:57:23.875Z,97150.53
2023-01-11T06:59:50.281Z,97148.69
2023-01-11T07:02:16.800Z,97152.69
2023-01-11T07:04:43.919Z,97141.81
2023-01-11T07:07:10.400Z,97145.00
2023-01-11T07:09:36.831Z,97150.09
2023-01-11T07:12:03.245Z,97131.22
2023-01-11T07:14:30.342Z,97140.78
2023-01-11T07:16:56.618Z,97126.44
2023-01-11T07:19:23.335Z,97139.50
2023-01-11T07:21:49.695Z,97130.44
2023-01-11T07:24:15.961Z,97121.66
2023-01-11T07:26:42.241Z,97131.25
2023-01-11T07:29:08.632Z,97131.25
2023-01-11T07:31:35.345Z,97131.81
2023-01-11T07:34:01.694Z,97136.06
2023-01-11T07:36:28.035Z,97133.13
2023-01-11T07:38:54.270Z,97132.09
2023-01-11T07:41:20.546Z,97130.78
2023-01-11T07:43:46.817Z,97138.28
2023-01-11T07:46:13.221Z,97140.41
2023-01-11T07:48:39.540Z,97138.84
2023-01-11T07:51:05.804Z,97145.53
2023-01-11T07:53:32.109Z,97156.72
2023-01-11T07:55:58.493Z,97139.41
2023-01-11T07:58:24.791Z,97139.97
2023-01-11T08:00:51.334Z,97140.78
2023-01-11T08:03:18.052Z,97150.38
2023-01-11T08:05:44.395Z,97149.06
2023-01-11T08:08:11.099Z,97150.91
2023-01-11T08:10:40.382Z,97149.06
2023-01-11T08:13:08.354Z,97145.31
2023-01-11T08:15:40.377Z,97132.00
2023-01-11T08:18:07.328Z,97134.69
2023-01-11T08:20:33.628Z,97125.09
2023-01-11T08:23:00.003Z,97135.75
2023-01-11T08:25:26.283Z,97148.00
2023-01-11T08:27:52.589Z,97146.41
2023-01-11T08:30:19.216Z,97144.81
2023-01-11T08:32:45.469Z,97144.00
2023-01-11T08:35:12.206Z,97156.50
2023-01-11T08:37:38.457Z,97149.59
2023-01-11T08:40:04.745Z,97157.84
2023-01-11T08:42:31.544Z,97143.16
2023-01-11T08:44:57.833Z,97141.56
2023-01-11T08:47:24.674Z,97145.25
2023-01-11T08:49:51.925Z,97145.53
2023-01-11T08:52:18.194Z,97158.03
2023-01-11T08:54:44.549Z,97161.75
2023-01-11T08:57:10.917Z,97160.13
2023-01-11T08:59:37.195Z,97159.34
2023-01-11T09:02:03.604Z,97163.06
2023-01-11T09:04:29.999Z,97158.00
2023-01-11T09:06:56.280Z,97159.06
2023-01-11T09:09:22.791Z,97159.06
2023-01-11T09:11:49.377Z,97153.72
2023-01-11T09:14:16.430Z,97157.19
2023-01-11T09:16:42.779Z,97159.84
2023-01-11T09:19:09.722Z,97172.38
2023-01-11T09:21:35.990Z,97171.31
2023-01-11T09:24:02.285Z,97175.03
2023-01-11T09:26:28.560Z,97169.72
2023-01-11T09:28:54.889Z,97175.03
2023-01-11T09:31:21.247Z,97176.63
2023-01-11T09:33:50.509Z,97175.03
2023-01-11T09:36:17.357Z,97191.78
2023-01-11T09:38:43.644Z,97188.34
2023-01-11T09:41:10.802Z,97186.47
2023-01-11T09:43:37.183Z,97173.16
2023-01-11T09:46:06.745Z,97168.91
2023-01-11T09:48:34.438Z,97179.28
2023-01-11T09:51:01.726Z,97151.06
2023-01-11T09:53:28.429Z,97168.63
2023-01-11T09:55:54.744Z,97173.16
2023-01-11T09:58:21.103Z,97178.72
2023-01-11T10:00:47.545Z,97182.22
2023-01-11T10:03:13.967Z,97187.53
2023-01-11T10:05:40.426Z,97180.34
2023-01-11T10:18:39.797Z,97188.91
2023-01-11T10:19:33.352Z,97183.31
2023-01-11T10:21:56.312Z,97189.41
2023-01-11T10:24:22.664Z,97195.56
2023-01-11T10:26:49.166Z,97199.84
2023-01-11T10:29:15.446Z,97200.63
2023-01-11T10:31:43.255Z,97195.84
2023-01-11T10:34:09.635Z,97194.81
2023-01-11T10:36:36.179Z,97187.91
2023-01-11T10:39:02.507Z,97197.00
2023-01-11T10:41:28.795Z,97186.69
2023-01-11T10:43:55.262Z,97186.97
2023-01-11T10:46:21.542Z,97191.00
2023-01-11T10:48:47.965Z,97185.16
2023-01-11T10:51:14.830Z,97181.72
2023-01-11T10:56:24.440Z,97175.38
2023-01-11T10:58:50.761Z,97175.66
2023-01-11T11:01:18.299Z,97161.81
2023-01-11T11:03:45.825Z,97165.03
2023-01-11T11:06:12.153Z,97155.72
2023-01-11T11:08:39.308Z,97154.41
2023-01-11T11:11:05.855Z,97155.22
2023-01-11T11:13:32.170Z,97163.75
2023-01-11T11:15:58.581Z,97171.22
2023-01-11T11:18:25.433Z,97166.44
2023-01-11T11:20:54.628Z,97170.44
2023-01-11T11:23:20.910Z,97172.84
2023-01-11T11:25:47.280Z,97173.41
2023-01-11T11:28:14.335Z,97175.00
2023-01-11T11:30:40.790Z,97164.09
2023-01-11T11:33:07.429Z,97159.31
2023-01-11T11:35:33.718Z,97165.16
2023-01-11T11:38:01.199Z,97167.59
2023-01-11T11:40:27.595Z,97174.25
2023-01-11T11:42:54.204Z,97171.59
2023-01-11T11:45:21.382Z,97185.72
2023-01-11T11:47:47.690Z,97180.13
2023-01-11T11:50:15.950Z,97171.88
2023-01-11T11:52:43.405Z,97173.50
2023-01-11T11:55:09.701Z,97182.28
2023-01-11T11:57:36.320Z,97175.91
2023-01-11T12:00:02.619Z,97176.44
2023-01-11T12:02:33.154Z,97167.38
2023-01-11T12:04:59.625Z,97154.84
2023-01-11T12:07:25.925Z,97156.19
2023-01-11T12:09:52.215Z,97165.81
2023-01-11T12:12:18.783Z,97165.53
2023-01-11T12:14:45.071Z,97152.97
2023-01-11T12:17:11.371Z,97151.69
2023-01-11T12:19:37.833Z,97155.69
2023-01-11T12:22:04.130Z,97149.03
2023-01-11T12:24:30.631Z,97149.56
2023-01-11T12:26:57.001Z,97150.13
2023-01-11T12:29:23.611Z,97148.78
2023-01-11T12:31:49.947Z,97153.88
2023-01-11T12:34:16.225Z,97155.47
2023-01-11T12:36:42.609Z,97157.88
2023-01-11T12:39:09.351Z,97166.44
2023-01-11T12:41:35.750Z,97167.81
2023-01-11T12:44:02.054Z,97171.00
2023-01-11T12:46:28.376Z,97171.00
2023-01-11T12:49:00.909Z,97180.34
2023-01-11T12:51:28.556Z,97184.88
2023-01-11T12:53:55.258Z,97187.53
2023-01-11T12:56:21.544Z,97203.53
2023-01-11T12:58:48.431Z,97203.28
2023-01-11T13:01:14.832Z,97188.09
2023-01-11T13:03:41.159Z,97199.56
2023-01-11T13:06:07.539Z,97185.41
2023-01-11T13:08:40.335Z,97201.41
2023-01-11T13:11:06.647Z,97203.53
2023-01-11T13:13:34.145Z,97216.06
2023-01-11T13:16:04.001Z,97220.63
2023-01-11T13:18:30.297Z,97215.56
2023-01-11T13:21:02.343Z,97219.25
2023-01-11T13:23:29.251Z,97221.16
2023-01-11T13:25:55.752Z,97225.69
2023-01-11T13:28:24.405Z,97204.34
2023-01-11T13:30:50.996Z,97208.84
2023-01-11T13:33:17.300Z,97215.00
2023-01-11T13:35:44.937Z,97219.53
2023-01-11T13:38:11.374Z,97223.81
2023-01-11T13:40:37.680Z,97219.00
2023-01-11T13:43:04.879Z,97240.09
2023-01-11T13:45:31.200Z,97240.63
2023-01-11T13:47:57.558Z,97241.44
2023-01-11T13:50:23.908Z,97237.69
2023-01-11T13:52:50.403Z,97235.84
2023-01-11T13:55:25.054Z,97239.06
2023-01-11T13:57:53.472Z,97240.66
2023-01-11T14:00:19.769Z,97240.94
2023-01-11T14:02:46.050Z,97245.22
2023-01-11T14:05:12.404Z,97235.88
2023-01-11T14:07:39.486Z,97237.50
2023-01-11T14:10:05.946Z,97242.56
2023-01-11T14:12:32.530Z,97251.13
2023-01-11T14:14:59.307Z,97250.03
2023-01-11T14:17:25.635Z,97253.53
2023-01-11T14:19:51.880Z,97260.72
2023-01-11T14:22:18.180Z,97263.38
2023-01-11T14:24:44.520Z,97258.03
2023-01-11T14:27:11.013Z,97266.06
2023-01-11T14:29:37.378Z,97270.84
2023-01-11T14:32:03.698Z,97284.19
2023-01-11T14:34:29.973Z,97285.25
2023-01-11T14:36:56.285Z,97287.38
2023-01-11T14:39:22.595Z,97301.81
2023-01-11T14:41:48.934Z,97294.84
2023-01-11T14:44:15.226Z,97302.28
2023-01-11T14:46:44.795Z,97312.97
2023-01-11T14:49:11.769Z,97306.31
2023-01-11T14:51:38.117Z,97310.28
2023-01-11T14:54:04.689Z,97311.34
2023-01-11T14:56:31.061Z,97321.47
2023-01-11T14:58:57.404Z,97321.72
2023-01-11T15:01:23.715Z,97322.25
2023-01-11T15:06:34.281Z,97334.22
2023-01-11T15:09:00.609Z,97333.66
2023-01-11T15:11:27.137Z,97334.72
2023-01-11T15:13:53.723Z,97344.84
2023-01-11T15:16:20.076Z,97337.91
2023-01-11T15:18:46.766Z,97339.22
2023-01-11T15:21:13.036Z,97338.66
2023-01-11T15:23:40.407Z,97353.84
2023-01-11T15:26:06.762Z,97353.34
2023-01-11T15:28:33.086Z,97366.91
2023-01-11T15:31:00.248Z,97361.03
2023-01-11T15:33:26.688Z,97365.56
2023-01-11T15:35:52.997Z,97370.09
2023-01-11T15:38:19.271Z,97367.41
2023-01-11T15:40:46.354Z,97369.53
2023-01-11T15:43:12.715Z,97368.75
2023-01-11T15:45:39.688Z,97375.13
2023-01-11T15:48:05.975Z,97385.22
2023-01-11T15:50:32.333Z,97378.31
2023-01-11T15:52:59.501Z,97379.91
2023-01-11T15:55:25.900Z,97391.38
2023-01-11T15:57:52.261Z,97395.91
2023-01-11T16:00:19.276Z,97389.53
2023-01-11T16:02:45.662Z,97392.19
2023-01-11T16:05:11.983Z,97392.19
2023-01-11T16:07:38.337Z,97405.53
2023-01-11T16:10:05.392Z,97409.78
2023-01-11T16:12:32.369Z,97424.75
2023-01-11T16:14:58.659Z,97416.50
2023-01-11T16:17:25.001Z,97414.38
2023-01-11T16:19:51.282Z,97423.72
2023-01-11T16:22:18.237Z,97437.88
2023-01-11T16:24:44.546Z,97434.13
2023-01-11T16:27:10.951Z,97434.69
2023-01-11T16:29:38.093Z,97439.75
2023-01-11T16:32:04.641Z,97445.91
2023-01-11T16:34:31.096Z,97452.84
2023-01-11T16:37:00.497Z,97455.50
2023-01-11T16:39:26.836Z,97446.47
2023-01-11T16:41:53.226Z,97455.28
2023-01-11T16:44:19.696Z,97449.69
2023-01-11T16:46:46.047Z,97457.69
2023-01-11T16:49:13.315Z,97464.63
2023-01-11T16:51:40.539Z,97458.25
2023-01-11T16:54:06.882Z,97457.44
2023-01-11T16:56:34.097Z,97456.59
2023-01-11T16:59:02.531Z,97464.63
2023-01-11T17:01:29.071Z,97462.75
2023-01-11T17:03:55.803Z,97477.69
2023-01-11T17:06:22.605Z,97468.69
2023-01-11T17:08:49.340Z,97467.03
2023-01-11T17:11:16.937Z,97481.44
2023-01-11T17:13:43.237Z,97476.09
2023-01-11T17:16:12.865Z,97477.13
2023-01-11T17:18:39.271Z,97473.69
2023-01-11T17:21:05.748Z,97469.41
2023-01-11T17:23:32.234Z,97469.66
2023-01-11T17:25:58.504Z,97469.66
2023-01-11T17:28:24.954Z,97472.56
2023-01-11T17:30:51.929Z,97486.97
2023-01-11T17:33:20.480Z,97488.28
2023-01-11T17:35:47.174Z,97476.00
2023-01-11T17:38:13.531Z,97485.06
2023-01-11T17:40:39.877Z,97492.50
2023-01-11T17:43:06.255Z,97490.91
2023-01-11T17:45:32.609Z,97500.19
2023-01-11T17:47:59.186Z,97497.78
2023-01-11T17:50:26.213Z,97507.91
2023-01-11T17:52:55.738Z,97506.31
2023-01-11T17:55:22.127Z,97506.56
2023-01-11T17:57:48.407Z,97498.81
2023-01-11T18:00:14.955Z,97494.53
2023-01-11T18:02:41.413Z,97496.16
2023-01-11T18:05:08.542Z,97493.47
2023-01-11T18:07:35.633Z,97499.84
2023-01-11T18:10:03.731Z,97493.72
2023-01-11T18:12:30.406Z,97494.53
2023-01-11T18:14:56.770Z,97498.00
2023-01-11T18:17:23.068Z,97495.34
2023-01-11T18:19:50.267Z,97504.16
2023-01-11T18:22:16.671Z,97505.19
2023-01-11T18:24:43.311Z,97499.84
2023-01-11T18:27:09.742Z,97507.06
2023-01-11T18:29:36.310Z,97511.31
2023-01-11T18:32:02.740Z,97521.19
2023-01-11T18:34:29.097Z,97519.34
2023-01-11T18:36:55.484Z,97527.06
2023-01-11T18:39:21.883Z,97524.41
2023-01-11T18:41:49.478Z,97520.66
2023-01-11T18:44:15.800Z,97529.50
2023-01-11T18:46:42.104Z,97522.28
2023-01-11T18:49:08.441Z,97523.91
2023-01-11T18:51:35.114Z,97517.78
2023-01-11T18:54:01.503Z,97523.13
2023-01-11T18:56:27.786Z,97516.97
2023-01-11T18:58:54.160Z,97519.88
2023-01-11T19:01:20.759Z,97510.25
2023-01-11T19:03:47.209Z,97522.00
2023-01-11T19:06:13.548Z,97511.59
2023-01-11T19:08:39.883Z,97516.34
2023-01-11T19:11:06.450Z,97512.09
2023-01-11T19:13:32.939Z,97508.63
2023-01-11T19:15:59.266Z,97517.66
2023-01-11T19:18:27.441Z,97505.13
2023-01-11T19:20:54.752Z,97514.75
2023-01-11T19:23:21.057Z,97515.81
2023-01-11T19:25:47.371Z,97524.63
2023-01-11T19:28:13.710Z,97518.47
2023-01-11T19:30:40.070Z,97521.13
2023-01-11T19:33:06.527Z,97516.63
2023-01-11T19:35:33.778Z,97507.81
2023-01-11T19:38:00.208Z,97513.13
2023-01-11T19:40:26.623Z,97516.88
2023-01-11T19:42:53.052Z,97503.53
2023-01-11T19:45:19.466Z,97512.56
2023-01-11T19:47:45.858Z,97513.66
2023-01-11T19:50:12.122Z,97518.97
2023-01-11T19:52:38.410Z,97504.00
2023-01-11T19:55:04.687Z,97514.69
2023-01-11T19:57:31.032Z,97503.22
2023-01-11T19:59:57.326Z,97495.50
2023-01-11T20:02:23.778Z,97497.66
2023-01-11T20:04:52.654Z,97504.56
2023-01-11T20:07:22.289Z,97512.31
2023-01-11T20:09:48.647Z,97510.22
2023-01-11T20:12:14.930Z,97518.78
2023-01-11T20:14:41.389Z,97521.19
2023-01-11T20:17:07.765Z,97519.06
2023-01-11T20:19:42.898Z,97522.28
2023-01-11T20:22:09.336Z,97522.84
2023-01-11T20:24:35.965Z,97527.13
2023-01-11T20:27:02.602Z,97527.69
2023-01-11T20:29:29.073Z,97521.06
2023-01-11T20:31:55.788Z,97503.63
2023-01-11T20:34:23.049Z,97514.13
2023-01-11T20:36:49.353Z,97497.88
2023-01-11T20:39:15.828Z,97492.06
2023-01-11T20:41:42.149Z,97485.66
2023-01-11T20:44:12.611Z,97491.53
2023-01-11T20:46:42.636Z,97492.09
2023-01-11T20:49:09.068Z,97481.22
2023-01-11T20:51:35.551Z,97480.38
2023-01-11T20:54:01.864Z,97484.69
2023-01-11T20:56:28.307Z,97479.34
2023-01-11T20:58:54.584Z,97476.91
2023-01-11T21:01:20.924Z,97464.34
2023-01-11T21:03:48.579Z,97454.75
2023-01-11T21:06:15.718Z,97451.53
2023-01-11T21:08:42.351Z,97436.59
2023-01-11T21:11:08.806Z,97444.31
2023-01-11T21:13:35.100Z,97446.16
2023-01-11T21:16:01.794Z,97433.78
2023-01-11T21:18:28.099Z,97451.44
2023-01-11T21:20:54.373Z,97449.03
2023-01-11T21:23:20.709Z,97444.75
2023-01-11T21:25:47.128Z,97443.63
2023-01-11T21:28:13.535Z,97444.72
2023-01-11T21:30:39.821Z,97444.97
2023-01-11T21:33:06.200Z,97438.25
2023-01-11T21:35:32.903Z,97434.00
2023-01-11T21:38:02.677Z,97429.19
2023-01-11T21:40:29.155Z,97427.56
2023-01-11T21:42:55.586Z,97430.47
2023-01-11T21:45:21.962Z,97449.16
2023-01-11T21:47:48.213Z,97447.53
2023-01-11T21:50:14.502Z,97459.25
2023-01-11T21:52:40.812Z,97466.47
2023-01-11T21:55:07.133Z,97474.47
2023-01-11T21:57:33.401Z,97461.13
2023-01-11T21:59:59.671Z,97461.13
2023-01-11T22:02:26.100Z,97461.13
2023-01-11T22:04:54.244Z,97443.50
2023-01-11T22:07:20.536Z,97459.75
2023-01-11T22:10:03.425Z,97447.25
2023-01-11T22:12:30.842Z,97440.28
2023-01-11T22:14:57.139Z,97449.63
2023-01-11T22:17:23.445Z,97440.00
2023-01-11T22:19:49.727Z,97439.44
2023-01-11T22:22:16.139Z,97441.56
2023-01-11T22:24:42.420Z,97441.00
2023-01-11T22:27:08.788Z,97427.94
2023-01-11T22:29:35.389Z,97437.78
2023-01-11T22:32:01.805Z,97417.75
2023-01-11T22:34:28.069Z,97417.19
2023-01-11T22:36:54.437Z,97425.44
2023-01-11T22:39:20.770Z,97431.03
2023-01-11T22:41:47.184Z,97440.09
2023-01-11T22:44:13.539Z,97436.06
2023-01-11T22:46:40.077Z,97428.31
2023-01-11T22:49:06.455Z,97416.84
2023-01-11T22:51:32.745Z,97422.69
2023-01-11T22:53:59.048Z,97416.56
2023-01-11T22:56:25.408Z,97400.81
2023-01-11T22:58:52.006Z,97414.66
2023-01-11T23:01:18.385Z,97399.72
2023-01-11T23:03:44.766Z,97393.84
2023-01-11T23:06:11.289Z,97393.28
2023-01-11T23:08:37.579Z,97394.31
2023-01-11T23:11:03.945Z,97398.06
2023-01-11T23:13:30.308Z,97399.13
2023-01-11T23:15:56.597Z,97385.25
2023-01-11T23:18:22.988Z,97396.94
2023-01-11T23:20:49.566Z,97388.38
2023-01-11T23:23:15.871Z,97385.19
2023-01-11T23:25:42.240Z,97378.25
2023-01-11T23:28:08.608Z,97381.16
2023-01-11T23:30:35.012Z,97371.81
2023-01-11T23:33:01.292Z,97366.50
2023-01-11T23:35:27.599Z,97371.81
2023-01-11T23:37:53.963Z,97357.94
2023-01-11T23:40:20.427Z,97353.66
2023-01-11T23:42:46.707Z,97355.53
2023-01-11T23:45:13.164Z,97351.22
2023-01-11T23:47:39.487Z,97351.47
2023-01-11T23:50:06.000Z,97349.88
2023-01-11T23:52:32.322Z,97340.25
2023-01-11T23:54:58.702Z,97341.34
2023-01-11T23:57:25.118Z,97334.63
2023-01-11T23:59:51.449Z,97336.47
